CYSC

Sherbrooke Airport

ICAO Code CYSC
IATA Code YSC
Name Sherbrooke Airport
Location Sherbrooke, Quebec, CA
Elevation 792 Feet / 241.4 Meters
Latitude 45.43861111
Longitude -71.69138889
METAR CYSC 182342Z AUTO 25005KT 3SM -RA BR BKN006 BKN010 OVC020 16/15 A2982 RMK SLP101 DENSITY ALT 1200FT
Extra information Display NOTAMS
Display Charts
Runway Length Width Surface Elevation
13 5901 ft 150 ft ASP 754 ft
31 5901 ft 150 ft ASP 792 ft